sensor_id;sensor_type;location;lat;lon;timestamp;P1;durP1;ratioP1;P2;durP2;ratioP2
48751;SDS011;34544;48.836;9.174;2023-12-20T00:00:58;1.10;;;0.88;;
48751;SDS011;34544;48.836;9.174;2023-12-20T00:03:23;1.20;;;1.08;;
48751;SDS011;34544;48.836;9.174;2023-12-20T00:05:50;1.17;;;1.00;;
48751;SDS011;34544;48.836;9.174;2023-12-20T00:08:16;1.42;;;0.98;;
48751;SDS011;34544;48.836;9.174;2023-12-20T00:10:42;2.22;;;1.23;;
48751;SDS011;34544;48.836;9.174;2023-12-20T00:13:09;1.65;;;1.45;;
48751;SDS011;34544;48.836;9.174;2023-12-20T00:15:34;1.40;;;1.05;;
48751;SDS011;34544;48.836;9.174;2023-12-20T00:18:00;1.25;;;0.70;;
48751;SDS011;34544;48.836;9.174;2023-12-20T00:20:26;1.55;;;1.08;;
48751;SDS011;34544;48.836;9.174;2023-12-20T00:22:53;1.05;;;0.82;;
48751;SDS011;34544;48.836;9.174;2023-12-20T00:25:21;1.05;;;0.75;;
48751;SDS011;34544;48.836;9.174;2023-12-20T00:27:46;1.15;;;1.00;;
48751;SDS011;34544;48.836;9.174;2023-12-20T00:30:12;1.00;;;0.63;;
48751;SDS011;34544;48.836;9.174;2023-12-20T00:32:38;3.88;;;1.23;;
48751;SDS011;34544;48.836;9.174;2023-12-20T00:35:04;1.17;;;0.88;;
48751;SDS011;34544;48.836;9.174;2023-12-20T00:37:29;2.90;;;0.90;;
48751;SDS011;34544;48.836;9.174;2023-12-20T00:39:55;0.93;;;0.80;;
48751;SDS011;34544;48.836;9.174;2023-12-20T00:42:21;2.45;;;1.10;;
48751;SDS011;34544;48.836;9.174;2023-12-20T00:44:46;2.15;;;1.40;;
48751;SDS011;34544;48.836;9.174;2023-12-20T00:47:12;1.27;;;0.80;;
48751;SDS011;34544;48.836;9.174;2023-12-20T00:49:38;2.03;;;1.65;;
48751;SDS011;34544;48.836;9.174;2023-12-20T00:52:04;3.65;;;1.45;;
48751;SDS011;34544;48.836;9.174;2023-12-20T00:54:30;2.17;;;1.45;;
48751;SDS011;34544;48.836;9.174;2023-12-20T00:56:56;3.88;;;1.60;;
48751;SDS011;34544;48.836;9.174;2023-12-20T00:59:21;2.47;;;1.58;;
48751;SDS011;34544;48.836;9.174;2023-12-20T01:01:47;2.38;;;1.52;;
48751;SDS011;34544;48.836;9.174;2023-12-20T01:04:13;2.30;;;1.40;;
48751;SDS011;34544;48.836;9.174;2023-12-20T01:06:39;1.73;;;1.63;;
48751;SDS011;34544;48.836;9.174;2023-12-20T01:09:05;4.63;;;1.70;;
48751;SDS011;34544;48.836;9.174;2023-12-20T01:11:31;2.65;;;1.67;;
48751;SDS011;34544;48.836;9.174;2023-12-20T01:13:56;4.32;;;1.95;;
48751;SDS011;34544;48.836;9.174;2023-12-20T01:16:22;4.30;;;1.95;;
48751;SDS011;34544;48.836;9.174;2023-12-20T01:18:48;5.20;;;1.60;;
48751;SDS011;34544;48.836;9.174;2023-12-20T01:21:14;2.38;;;1.48;;
48751;SDS011;34544;48.836;9.174;2023-12-20T01:23:40;4.38;;;1.80;;
48751;SDS011;34544;48.836;9.174;2023-12-20T01:26:05;2.35;;;1.80;;
48751;SDS011;34544;48.836;9.174;2023-12-20T01:28:31;1.85;;;1.65;;
48751;SDS011;34544;48.836;9.174;2023-12-20T01:30:57;2.28;;;1.98;;
48751;SDS011;34544;48.836;9.174;2023-12-20T01:33:23;4.15;;;1.77;;
48751;SDS011;34544;48.836;9.174;2023-12-20T01:35:49;3.47;;;1.52;;
48751;SDS011;34544;48.836;9.174;2023-12-20T01:38:15;2.92;;;2.08;;
48751;SDS011;34544;48.836;9.174;2023-12-20T01:40:44;2.58;;;2.28;;
48751;SDS011;34544;48.836;9.174;2023-12-20T01:43:10;2.33;;;1.90;;
48751;SDS011;34544;48.836;9.174;2023-12-20T01:45:37;2.83;;;2.20;;
48751;SDS011;34544;48.836;9.174;2023-12-20T01:48:04;4.68;;;2.50;;
48751;SDS011;34544;48.836;9.174;2023-12-20T01:50:31;5.35;;;1.70;;
48751;SDS011;34544;48.836;9.174;2023-12-20T01:52:57;2.53;;;2.00;;
48751;SDS011;34544;48.836;9.174;2023-12-20T01:55:27;3.63;;;1.83;;
48751;SDS011;34544;48.836;9.174;2023-12-20T01:57:56;2.63;;;1.77;;
48751;SDS011;34544;48.836;9.174;2023-12-20T02:00:23;3.45;;;2.10;;
48751;SDS011;34544;48.836;9.174;2023-12-20T02:02:52;6.80;;;2.03;;
48751;SDS011;34544;48.836;9.174;2023-12-20T02:05:20;3.63;;;2.00;;
48751;SDS011;34544;48.836;9.174;2023-12-20T02:07:46;5.07;;;1.90;;
48751;SDS011;34544;48.836;9.174;2023-12-20T02:10:12;4.20;;;2.00;;
48751;SDS011;34544;48.836;9.174;2023-12-20T02:12:38;3.17;;;2.00;;
48751;SDS011;34544;48.836;9.174;2023-12-20T02:15:04;5.05;;;2.40;;
48751;SDS011;34544;48.836;9.174;2023-12-20T02:17:31;3.97;;;2.72;;
48751;SDS011;34544;48.836;9.174;2023-12-20T02:19:57;2.70;;;1.95;;
48751;SDS011;34544;48.836;9.174;2023-12-20T02:22:23;3.13;;;2.20;;
48751;SDS011;34544;48.836;9.174;2023-12-20T02:24:49;2.35;;;2.13;;
48751;SDS011;34544;48.836;9.174;2023-12-20T02:27:15;3.45;;;2.30;;
48751;SDS011;34544;48.836;9.174;2023-12-20T02:29:42;6.13;;;2.38;;
48751;SDS011;34544;48.836;9.174;2023-12-20T02:32:08;2.78;;;2.10;;
48751;SDS011;34544;48.836;9.174;2023-12-20T02:34:34;2.95;;;2.38;;
48751;SDS011;34544;48.836;9.174;2023-12-20T02:36:59;2.80;;;2.35;;
48751;SDS011;34544;48.836;9.174;2023-12-20T02:39:25;4.95;;;2.28;;
48751;SDS011;34544;48.836;9.174;2023-12-20T02:41:50;3.40;;;2.17;;
48751;SDS011;34544;48.836;9.174;2023-12-20T02:44:16;2.40;;;2.17;;
48751;SDS011;34544;48.836;9.174;2023-12-20T02:46:42;4.20;;;2.72;;
48751;SDS011;34544;48.836;9.174;2023-12-20T02:49:08;5.63;;;2.35;;
48751;SDS011;34544;48.836;9.174;2023-12-20T02:51:33;1.40;;;1.00;;
48751;SDS011;34544;48.836;9.174;2023-12-20T02:53:59;1.30;;;0.70;;
48751;SDS011;34544;48.836;9.174;2023-12-20T02:56:25;0.90;;;0.70;;
48751;SDS011;34544;48.836;9.174;2023-12-20T02:58:50;0.60;;;0.60;;
48751;SDS011;34544;48.836;9.174;2023-12-20T03:01:16;0.40;;;0.32;;
48751;SDS011;34544;48.836;9.174;2023-12-20T03:03:42;3.00;;;0.90;;
48751;SDS011;34544;48.836;9.174;2023-12-20T03:06:08;5.80;;;0.43;;
48751;SDS011;34544;48.836;9.174;2023-12-20T03:08:33;0.20;;;0.20;;
48751;SDS011;34544;48.836;9.174;2023-12-20T03:10:59;7.10;;;0.40;;
48751;SDS011;34544;48.836;9.174;2023-12-20T03:13:25;0.40;;;0.30;;
48751;SDS011;34544;48.836;9.174;2023-12-20T03:15:51;0.75;;;0.30;;
48751;SDS011;34544;48.836;9.174;2023-12-20T03:18:16;0.38;;;0.20;;
48751;SDS011;34544;48.836;9.174;2023-12-20T03:20:43;0.95;;;0.38;;
48751;SDS011;34544;48.836;9.174;2023-12-20T03:23:09;0.20;;;0.20;;
48751;SDS011;34544;48.836;9.174;2023-12-20T03:25:35;0.77;;;0.20;;
48751;SDS011;34544;48.836;9.174;2023-12-20T03:28:00;0.17;;;0.10;;
48751;SDS011;34544;48.836;9.174;2023-12-20T03:30:26;0.20;;;0.20;;
48751;SDS011;34544;48.836;9.174;2023-12-20T03:32:52;0.38;;;0.30;;
48751;SDS011;34544;48.836;9.174;2023-12-20T03:37:48;0.52;;;0.35;;
48751;SDS011;34544;48.836;9.174;2023-12-20T03:40:13;0.77;;;0.30;;
48751;SDS011;34544;48.836;9.174;2023-12-20T03:42:39;0.65;;;0.30;;
48751;SDS011;34544;48.836;9.174;2023-12-20T03:45:05;0.55;;;0.20;;
48751;SDS011;34544;48.836;9.174;2023-12-20T03:47:31;0.32;;;0.20;;
48751;SDS011;34544;48.836;9.174;2023-12-20T03:49:57;0.43;;;0.30;;
48751;SDS011;34544;48.836;9.174;2023-12-20T03:52:23;0.25;;;0.10;;
48751;SDS011;34544;48.836;9.174;2023-12-20T03:54:48;0.50;;;0.13;;
48751;SDS011;34544;48.836;9.174;2023-12-20T03:57:14;1.77;;;0.20;;
48751;SDS011;34544;48.836;9.174;2023-12-20T03:59:40;0.43;;;0.30;;
48751;SDS011;34544;48.836;9.174;2023-12-20T04:02:05;0.15;;;0.15;;
48751;SDS011;34544;48.836;9.174;2023-12-20T04:04:31;0.40;;;0.30;;
48751;SDS011;34544;48.836;9.174;2023-12-20T04:06:57;0.03;;;0.00;;
48751;SDS011;34544;48.836;9.174;2023-12-20T04:09:23;0.38;;;0.30;;
48751;SDS011;34544;48.836;9.174;2023-12-20T04:11:49;0.57;;;0.10;;
48751;SDS011;34544;48.836;9.174;2023-12-20T04:14:14;0.10;;;0.10;;
48751;SDS011;34544;48.836;9.174;2023-12-20T04:16:40;0.63;;;0.30;;
48751;SDS011;34544;48.836;9.174;2023-12-20T04:19:06;0.10;;;0.10;;
48751;SDS011;34544;48.836;9.174;2023-12-20T04:21:31;0.38;;;0.10;;
48751;SDS011;34544;48.836;9.174;2023-12-20T04:23:57;0.30;;;0.13;;
48751;SDS011;34544;48.836;9.174;2023-12-20T04:26:23;0.28;;;0.20;;
48751;SDS011;34544;48.836;9.174;2023-12-20T04:28:49;0.17;;;0.10;;
48751;SDS011;34544;48.836;9.174;2023-12-20T04:31:14;1.50;;;0.25;;
48751;SDS011;34544;48.836;9.174;2023-12-20T04:33:40;0.75;;;0.32;;
48751;SDS011;34544;48.836;9.174;2023-12-20T04:36:06;0.32;;;0.22;;
48751;SDS011;34544;48.836;9.174;2023-12-20T04:38:34;0.60;;;0.30;;
48751;SDS011;34544;48.836;9.174;2023-12-20T04:40:59;0.25;;;0.20;;
48751;SDS011;34544;48.836;9.174;2023-12-20T04:43:25;0.80;;;0.40;;
48751;SDS011;34544;48.836;9.174;2023-12-20T04:45:51;0.63;;;0.30;;
48751;SDS011;34544;48.836;9.174;2023-12-20T04:48:16;0.38;;;0.32;;
48751;SDS011;34544;48.836;9.174;2023-12-20T04:50:42;0.43;;;0.20;;
48751;SDS011;34544;48.836;9.174;2023-12-20T04:53:08;0.38;;;0.25;;
48751;SDS011;34544;48.836;9.174;2023-12-20T04:55:33;0.70;;;0.10;;
48751;SDS011;34544;48.836;9.174;2023-12-20T04:57:59;0.30;;;0.20;;
48751;SDS011;34544;48.836;9.174;2023-12-20T05:00:25;0.20;;;0.20;;
48751;SDS011;34544;48.836;9.174;2023-12-20T05:02:50;0.20;;;0.20;;
48751;SDS011;34544;48.836;9.174;2023-12-20T05:05:17;2.20;;;0.30;;
48751;SDS011;34544;48.836;9.174;2023-12-20T05:07:43;0.20;;;0.20;;
48751;SDS011;34544;48.836;9.174;2023-12-20T05:10:09;0.73;;;0.40;;
48751;SDS011;34544;48.836;9.174;2023-12-20T05:12:34;2.13;;;0.40;;
48751;SDS011;34544;48.836;9.174;2023-12-20T05:15:00;0.65;;;0.50;;
48751;SDS011;34544;48.836;9.174;2023-12-20T05:17:26;0.38;;;0.30;;
48751;SDS011;34544;48.836;9.174;2023-12-20T05:19:51;0.43;;;0.32;;
48751;SDS011;34544;48.836;9.174;2023-12-20T05:22:18;1.17;;;0.68;;
48751;SDS011;34544;48.836;9.174;2023-12-20T05:24:45;1.58;;;0.60;;
48751;SDS011;34544;48.836;9.174;2023-12-20T05:27:10;1.20;;;0.32;;
48751;SDS011;34544;48.836;9.174;2023-12-20T05:29:36;3.08;;;0.60;;
48751;SDS011;34544;48.836;9.174;2023-12-20T05:32:02;9.23;;;0.55;;
48751;SDS011;34544;48.836;9.174;2023-12-20T05:34:30;0.55;;;0.47;;
48751;SDS011;34544;48.836;9.174;2023-12-20T05:36:56;4.07;;;0.57;;
48751;SDS011;34544;48.836;9.174;2023-12-20T05:39:22;0.88;;;0.50;;
48751;SDS011;34544;48.836;9.174;2023-12-20T05:41:48;3.30;;;0.93;;
48751;SDS011;34544;48.836;9.174;2023-12-20T05:44:13;1.25;;;1.15;;
48751;SDS011;34544;48.836;9.174;2023-12-20T05:46:39;3.92;;;1.38;;
48751;SDS011;34544;48.836;9.174;2023-12-20T05:49:05;1.80;;;0.95;;
48751;SDS011;34544;48.836;9.174;2023-12-20T05:51:32;3.75;;;1.10;;
48751;SDS011;34544;48.836;9.174;2023-12-20T05:53:58;1.40;;;0.88;;
48751;SDS011;34544;48.836;9.174;2023-12-20T05:56:24;3.80;;;0.70;;
48751;SDS011;34544;48.836;9.174;2023-12-20T05:58:49;1.55;;;0.82;;
48751;SDS011;34544;48.836;9.174;2023-12-20T06:01:16;1.52;;;1.10;;
48751;SDS011;34544;48.836;9.174;2023-12-20T06:03:42;1.40;;;0.88;;
48751;SDS011;34544;48.836;9.174;2023-12-20T06:06:09;0.90;;;0.70;;
48751;SDS011;34544;48.836;9.174;2023-12-20T06:08:35;1.38;;;0.70;;
48751;SDS011;34544;48.836;9.174;2023-12-20T06:11:01;1.17;;;0.80;;
48751;SDS011;34544;48.836;9.174;2023-12-20T06:13:27;2.28;;;0.60;;
48751;SDS011;34544;48.836;9.174;2023-12-20T06:15:56;1.23;;;0.77;;
48751;SDS011;34544;48.836;9.174;2023-12-20T06:18:22;0.60;;;0.60;;
48751;SDS011;34544;48.836;9.174;2023-12-20T06:20:48;1.02;;;0.60;;
48751;SDS011;34544;48.836;9.174;2023-12-20T06:23:14;2.50;;;0.65;;
48751;SDS011;34544;48.836;9.174;2023-12-20T06:25:40;0.45;;;0.40;;
48751;SDS011;34544;48.836;9.174;2023-12-20T06:28:05;3.75;;;0.98;;
48751;SDS011;34544;48.836;9.174;2023-12-20T06:30:31;3.92;;;1.00;;
48751;SDS011;34544;48.836;9.174;2023-12-20T06:32:58;0.82;;;0.77;;
48751;SDS011;34544;48.836;9.174;2023-12-20T06:35:23;5.32;;;0.73;;
48751;SDS011;34544;48.836;9.174;2023-12-20T06:37:50;1.13;;;0.73;;
48751;SDS011;34544;48.836;9.174;2023-12-20T06:40:16;2.10;;;0.90;;
48751;SDS011;34544;48.836;9.174;2023-12-20T06:42:41;4.43;;;1.20;;
48751;SDS011;34544;48.836;9.174;2023-12-20T06:45:09;1.27;;;0.82;;
48751;SDS011;34544;48.836;9.174;2023-12-20T06:47:35;1.60;;;1.00;;
48751;SDS011;34544;48.836;9.174;2023-12-20T06:50:00;1.73;;;0.98;;
48751;SDS011;34544;48.836;9.174;2023-12-20T06:52:26;3.67;;;1.42;;
48751;SDS011;34544;48.836;9.174;2023-12-20T06:54:52;3.38;;;1.13;;
48751;SDS011;34544;48.836;9.174;2023-12-20T06:57:18;2.20;;;1.00;;
48751;SDS011;34544;48.836;9.174;2023-12-20T06:59:45;3.30;;;1.40;;
48751;SDS011;34544;48.836;9.174;2023-12-20T07:02:11;1.98;;;1.23;;
48751;SDS011;34544;48.836;9.174;2023-12-20T07:04:40;1.90;;;1.70;;
48751;SDS011;34544;48.836;9.174;2023-12-20T07:07:06;2.42;;;1.95;;
48751;SDS011;34544;48.836;9.174;2023-12-20T07:09:32;4.60;;;2.10;;
48751;SDS011;34544;48.836;9.174;2023-12-20T07:11:58;2.88;;;2.17;;
48751;SDS011;34544;48.836;9.174;2023-12-20T07:14:24;2.47;;;2.20;;
48751;SDS011;34544;48.836;9.174;2023-12-20T07:16:50;2.42;;;2.20;;
48751;SDS011;34544;48.836;9.174;2023-12-20T07:19:16;3.15;;;2.85;;
48751;SDS011;34544;48.836;9.174;2023-12-20T07:21:42;3.25;;;2.55;;
48751;SDS011;34544;48.836;9.174;2023-12-20T07:24:09;3.95;;;2.80;;
48751;SDS011;34544;48.836;9.174;2023-12-20T07:26:34;4.07;;;2.40;;
48751;SDS011;34544;48.836;9.174;2023-12-20T07:29:00;3.67;;;2.85;;
48751;SDS011;34544;48.836;9.174;2023-12-20T07:31:26;2.83;;;2.10;;
48751;SDS011;34544;48.836;9.174;2023-12-20T07:33:51;2.78;;;2.33;;
48751;SDS011;34544;48.836;9.174;2023-12-20T07:36:19;2.25;;;2.05;;
48751;SDS011;34544;48.836;9.174;2023-12-20T07:38:45;2.33;;;2.05;;
48751;SDS011;34544;48.836;9.174;2023-12-20T07:41:10;4.07;;;2.20;;
48751;SDS011;34544;48.836;9.174;2023-12-20T07:43:36;3.72;;;2.20;;
48751;SDS011;34544;48.836;9.174;2023-12-20T07:46:08;2.50;;;2.30;;
48751;SDS011;34544;48.836;9.174;2023-12-20T07:48:37;4.70;;;2.95;;
48751;SDS011;34544;48.836;9.174;2023-12-20T07:51:06;2.60;;;2.40;;
48751;SDS011;34544;48.836;9.174;2023-12-20T07:53:33;6.55;;;2.03;;
48751;SDS011;34544;48.836;9.174;2023-12-20T07:56:00;3.42;;;2.53;;
48751;SDS011;34544;48.836;9.174;2023-12-20T07:58:26;2.33;;;2.13;;
48751;SDS011;34544;48.836;9.174;2023-12-20T08:00:51;4.70;;;2.50;;
48751;SDS011;34544;48.836;9.174;2023-12-20T08:03:17;2.58;;;2.38;;
48751;SDS011;34544;48.836;9.174;2023-12-20T08:05:43;3.22;;;2.63;;
48751;SDS011;34544;48.836;9.174;2023-12-20T08:08:08;2.92;;;2.47;;
48751;SDS011;34544;48.836;9.174;2023-12-20T08:10:34;2.85;;;2.42;;
48751;SDS011;34544;48.836;9.174;2023-12-20T08:13:00;2.92;;;2.70;;
48751;SDS011;34544;48.836;9.174;2023-12-20T08:15:26;4.13;;;3.13;;
48751;SDS011;34544;48.836;9.174;2023-12-20T08:17:51;4.30;;;2.88;;
48751;SDS011;34544;48.836;9.174;2023-12-20T08:20:17;3.28;;;2.92;;
48751;SDS011;34544;48.836;9.174;2023-12-20T08:22:42;7.90;;;3.30;;
48751;SDS011;34544;48.836;9.174;2023-12-20T08:25:08;3.45;;;3.03;;
48751;SDS011;34544;48.836;9.174;2023-12-20T08:27:39;5.22;;;2.65;;
48751;SDS011;34544;48.836;9.174;2023-12-20T08:30:05;4.75;;;3.97;;
48751;SDS011;34544;48.836;9.174;2023-12-20T08:32:33;3.38;;;2.85;;
48751;SDS011;34544;48.836;9.174;2023-12-20T08:34:59;6.60;;;2.78;;
48751;SDS011;34544;48.836;9.174;2023-12-20T08:37:25;3.72;;;2.58;;
48751;SDS011;34544;48.836;9.174;2023-12-20T08:39:51;4.05;;;2.97;;
48751;SDS011;34544;48.836;9.174;2023-12-20T08:42:16;5.15;;;3.00;;
48751;SDS011;34544;48.836;9.174;2023-12-20T08:44:42;5.45;;;2.60;;
48751;SDS011;34544;48.836;9.174;2023-12-20T08:47:08;5.82;;;3.03;;
48751;SDS011;34544;48.836;9.174;2023-12-20T08:49:38;2.90;;;2.65;;
48751;SDS011;34544;48.836;9.174;2023-12-20T08:52:04;3.30;;;2.85;;
48751;SDS011;34544;48.836;9.174;2023-12-20T08:54:30;3.53;;;2.00;;
48751;SDS011;34544;48.836;9.174;2023-12-20T08:56:55;3.13;;;2.17;;
48751;SDS011;34544;48.836;9.174;2023-12-20T08:59:21;3.08;;;2.20;;
48751;SDS011;34544;48.836;9.174;2023-12-20T09:01:47;3.25;;;2.15;;
48751;SDS011;34544;48.836;9.174;2023-12-20T09:04:13;2.72;;;1.63;;
48751;SDS011;34544;48.836;9.174;2023-12-20T09:06:39;3.38;;;1.85;;
48751;SDS011;34544;48.836;9.174;2023-12-20T09:09:04;5.10;;;2.05;;
48751;SDS011;34544;48.836;9.174;2023-12-20T09:11:31;3.17;;;2.30;;
48751;SDS011;34544;48.836;9.174;2023-12-20T09:13:56;1.92;;;1.70;;
48751;SDS011;34544;48.836;9.174;2023-12-20T09:16:22;3.60;;;1.50;;
48751;SDS011;34544;48.836;9.174;2023-12-20T09:18:48;2.50;;;1.73;;
48751;SDS011;34544;48.836;9.174;2023-12-20T09:21:13;2.88;;;1.88;;
48751;SDS011;34544;48.836;9.174;2023-12-20T09:23:40;6.97;;;1.80;;
48751;SDS011;34544;48.836;9.174;2023-12-20T09:26:06;5.28;;;1.67;;
48751;SDS011;34544;48.836;9.174;2023-12-20T09:28:32;2.42;;;1.55;;
48751;SDS011;34544;48.836;9.174;2023-12-20T09:31:01;2.03;;;1.23;;
48751;SDS011;34544;48.836;9.174;2023-12-20T09:33:28;5.22;;;1.67;;
48751;SDS011;34544;48.836;9.174;2023-12-20T09:35:54;4.43;;;1.10;;
48751;SDS011;34544;48.836;9.174;2023-12-20T09:38:20;2.10;;;0.82;;
48751;SDS011;34544;48.836;9.174;2023-12-20T09:40:45;4.00;;;1.17;;
48751;SDS011;34544;48.836;9.174;2023-12-20T09:43:13;4.35;;;1.40;;
48751;SDS011;34544;48.836;9.174;2023-12-20T09:45:41;2.28;;;1.10;;
48751;SDS011;34544;48.836;9.174;2023-12-20T09:48:10;2.55;;;1.15;;
48751;SDS011;34544;48.836;9.174;2023-12-20T09:50:37;3.75;;;1.30;;
48751;SDS011;34544;48.836;9.174;2023-12-20T09:53:02;3.63;;;1.00;;
48751;SDS011;34544;48.836;9.174;2023-12-20T09:55:30;3.08;;;0.95;;
48751;SDS011;34544;48.836;9.174;2023-12-20T09:57:57;7.45;;;1.20;;
48751;SDS011;34544;48.836;9.174;2023-12-20T10:00:24;4.45;;;0.98;;
48751;SDS011;34544;48.836;9.174;2023-12-20T10:02:50;1.73;;;1.02;;
48751;SDS011;34544;48.836;9.174;2023-12-20T10:05:26;5.70;;;1.10;;
48751;SDS011;34544;48.836;9.174;2023-12-20T10:07:55;6.07;;;1.05;;
48751;SDS011;34544;48.836;9.174;2023-12-20T10:10:22;8.68;;;1.20;;
48751;SDS011;34544;48.836;9.174;2023-12-20T10:13:07;7.18;;;1.35;;
48751;SDS011;34544;48.836;9.174;2023-12-20T10:15:37;4.78;;;1.20;;
48751;SDS011;34544;48.836;9.174;2023-12-20T10:18:03;1.30;;;0.82;;
48751;SDS011;34544;48.836;9.174;2023-12-20T10:20:30;4.45;;;1.05;;
48751;SDS011;34544;48.836;9.174;2023-12-20T10:22:56;6.40;;;1.60;;
48751;SDS011;34544;48.836;9.174;2023-12-20T10:25:26;3.85;;;1.13;;
48751;SDS011;34544;48.836;9.174;2023-12-20T10:28:11;5.10;;;2.22;;
48751;SDS011;34544;48.836;9.174;2023-12-20T10:30:43;9.23;;;2.55;;
48751;SDS011;34544;48.836;9.174;2023-12-20T10:33:09;3.80;;;1.10;;
48751;SDS011;34544;48.836;9.174;2023-12-20T10:35:36;4.80;;;1.38;;
48751;SDS011;34544;48.836;9.174;2023-12-20T10:38:04;9.55;;;1.17;;
48751;SDS011;34544;48.836;9.174;2023-12-20T10:40:30;3.08;;;1.40;;
48751;SDS011;34544;48.836;9.174;2023-12-20T10:42:59;5.82;;;0.80;;
48751;SDS011;34544;48.836;9.174;2023-12-20T10:45:26;6.75;;;1.00;;
48751;SDS011;34544;48.836;9.174;2023-12-20T10:47:52;4.60;;;1.42;;
48751;SDS011;34544;48.836;9.174;2023-12-20T10:50:19;4.75;;;1.10;;
48751;SDS011;34544;48.836;9.174;2023-12-20T10:52:45;6.57;;;1.45;;
48751;SDS011;34544;48.836;9.174;2023-12-20T10:55:12;2.00;;;1.05;;
48751;SDS011;34544;48.836;9.174;2023-12-20T10:57:38;2.85;;;0.90;;
48751;SDS011;34544;48.836;9.174;2023-12-20T11:00:06;4.28;;;0.90;;
48751;SDS011;34544;48.836;9.174;2023-12-20T11:02:39;5.28;;;1.15;;
48751;SDS011;34544;48.836;9.174;2023-12-20T11:08:09;5.15;;;1.00;;
48751;SDS011;34544;48.836;9.174;2023-12-20T11:10:42;5.15;;;0.90;;
48751;SDS011;34544;48.836;9.174;2023-12-20T11:13:17;6.05;;;1.30;;
48751;SDS011;34544;48.836;9.174;2023-12-20T11:15:47;3.28;;;1.23;;
48751;SDS011;34544;48.836;9.174;2023-12-20T11:18:13;9.63;;;1.52;;
48751;SDS011;34544;48.836;9.174;2023-12-20T11:20:41;5.80;;;1.23;;
48751;SDS011;34544;48.836;9.174;2023-12-20T11:23:10;5.40;;;1.20;;
48751;SDS011;34544;48.836;9.174;2023-12-20T11:25:54;9.65;;;1.50;;
48751;SDS011;34544;48.836;9.174;2023-12-20T11:28:24;4.70;;;1.00;;
48751;SDS011;34544;48.836;9.174;2023-12-20T11:30:54;4.82;;;1.15;;
48751;SDS011;34544;48.836;9.174;2023-12-20T11:33:22;5.32;;;1.80;;
48751;SDS011;34544;48.836;9.174;2023-12-20T11:35:49;5.50;;;1.23;;
48751;SDS011;34544;48.836;9.174;2023-12-20T11:38:15;8.25;;;1.50;;
48751;SDS011;34544;48.836;9.174;2023-12-20T11:40:44;6.05;;;1.48;;
48751;SDS011;34544;48.836;9.174;2023-12-20T11:43:09;5.22;;;1.20;;
48751;SDS011;34544;48.836;9.174;2023-12-20T11:45:35;3.65;;;1.25;;
48751;SDS011;34544;48.836;9.174;2023-12-20T11:48:01;4.07;;;1.25;;
48751;SDS011;34544;48.836;9.174;2023-12-20T11:50:28;4.55;;;1.15;;
48751;SDS011;34544;48.836;9.174;2023-12-20T11:52:55;4.00;;;1.20;;
48751;SDS011;34544;48.836;9.174;2023-12-20T11:55:23;11.75;;;2.03;;
48751;SDS011;34544;48.836;9.174;2023-12-20T11:57:50;2.33;;;1.00;;
48751;SDS011;34544;48.836;9.174;2023-12-20T12:00:16;8.00;;;1.30;;
48751;SDS011;34544;48.836;9.174;2023-12-20T12:02:43;6.38;;;1.35;;
48751;SDS011;34544;48.836;9.174;2023-12-20T12:05:19;4.95;;;1.67;;
48751;SDS011;34544;48.836;9.174;2023-12-20T12:07:45;5.03;;;1.25;;
48751;SDS011;34544;48.836;9.174;2023-12-20T12:10:11;10.98;;;1.85;;
48751;SDS011;34544;48.836;9.174;2023-12-20T12:12:36;5.47;;;1.42;;
48751;SDS011;34544;48.836;9.174;2023-12-20T12:15:02;9.32;;;1.55;;
48751;SDS011;34544;48.836;9.174;2023-12-20T12:17:28;4.90;;;1.67;;
48751;SDS011;34544;48.836;9.174;2023-12-20T12:20:01;7.10;;;1.17;;
48751;SDS011;34544;48.836;9.174;2023-12-20T12:22:30;7.82;;;1.85;;
48751;SDS011;34544;48.836;9.174;2023-12-20T12:24:58;6.53;;;1.95;;
48751;SDS011;34544;48.836;9.174;2023-12-20T12:27:34;6.15;;;1.17;;
48751;SDS011;34544;48.836;9.174;2023-12-20T12:30:03;10.00;;;1.50;;
48751;SDS011;34544;48.836;9.174;2023-12-20T12:32:32;6.15;;;1.90;;
48751;SDS011;34544;48.836;9.174;2023-12-20T12:34:58;2.92;;;1.08;;
48751;SDS011;34544;48.836;9.174;2023-12-20T12:37:24;6.30;;;2.15;;
48751;SDS011;34544;48.836;9.174;2023-12-20T12:39:50;6.40;;;1.58;;
48751;SDS011;34544;48.836;9.174;2023-12-20T12:42:18;4.32;;;1.23;;
48751;SDS011;34544;48.836;9.174;2023-12-20T12:44:44;8.77;;;1.58;;
48751;SDS011;34544;48.836;9.174;2023-12-20T12:47:10;3.50;;;1.48;;
48751;SDS011;34544;48.836;9.174;2023-12-20T12:49:35;4.50;;;1.20;;
48751;SDS011;34544;48.836;9.174;2023-12-20T12:52:01;4.43;;;1.73;;
48751;SDS011;34544;48.836;9.174;2023-12-20T12:54:28;5.70;;;1.20;;
48751;SDS011;34544;48.836;9.174;2023-12-20T12:56:53;7.65;;;1.85;;
48751;SDS011;34544;48.836;9.174;2023-12-20T12:59:19;3.40;;;1.38;;
48751;SDS011;34544;48.836;9.174;2023-12-20T13:01:45;5.28;;;1.42;;
48751;SDS011;34544;48.836;9.174;2023-12-20T13:04:11;3.92;;;1.05;;
48751;SDS011;34544;48.836;9.174;2023-12-20T13:06:37;2.63;;;0.90;;
48751;SDS011;34544;48.836;9.174;2023-12-20T13:09:04;4.30;;;1.30;;
48751;SDS011;34544;48.836;9.174;2023-12-20T13:11:30;6.75;;;1.35;;
48751;SDS011;34544;48.836;9.174;2023-12-20T13:13:59;2.95;;;0.90;;
48751;SDS011;34544;48.836;9.174;2023-12-20T13:16:25;2.92;;;0.98;;
48751;SDS011;34544;48.836;9.174;2023-12-20T13:18:51;6.38;;;1.40;;
48751;SDS011;34544;48.836;9.174;2023-12-20T13:21:17;4.80;;;0.98;;
48751;SDS011;34544;48.836;9.174;2023-12-20T13:23:43;4.40;;;1.20;;
48751;SDS011;34544;48.836;9.174;2023-12-20T13:26:09;2.22;;;0.80;;
48751;SDS011;34544;48.836;9.174;2023-12-20T13:28:35;4.65;;;1.10;;
48751;SDS011;34544;48.836;9.174;2023-12-20T13:31:00;5.85;;;1.27;;
48751;SDS011;34544;48.836;9.174;2023-12-20T13:33:26;3.53;;;1.20;;
48751;SDS011;34544;48.836;9.174;2023-12-20T13:35:51;5.45;;;1.48;;
48751;SDS011;34544;48.836;9.174;2023-12-20T13:38:17;3.10;;;1.35;;
48751;SDS011;34544;48.836;9.174;2023-12-20T13:40:43;5.00;;;1.65;;
48751;SDS011;34544;48.836;9.174;2023-12-20T13:43:09;5.00;;;1.20;;
48751;SDS011;34544;48.836;9.174;2023-12-20T13:45:36;3.75;;;0.57;;
48751;SDS011;34544;48.836;9.174;2023-12-20T13:48:02;5.40;;;1.02;;
48751;SDS011;34544;48.836;9.174;2023-12-20T13:50:29;4.57;;;0.90;;
48751;SDS011;34544;48.836;9.174;2023-12-20T13:52:55;1.95;;;1.00;;
48751;SDS011;34544;48.836;9.174;2023-12-20T13:55:20;5.68;;;1.42;;
48751;SDS011;34544;48.836;9.174;2023-12-20T13:57:50;7.47;;;1.58;;
48751;SDS011;34544;48.836;9.174;2023-12-20T14:00:16;9.80;;;1.35;;
48751;SDS011;34544;48.836;9.174;2023-12-20T14:02:42;5.65;;;1.00;;
48751;SDS011;34544;48.836;9.174;2023-12-20T14:05:08;6.55;;;1.23;;
48751;SDS011;34544;48.836;9.174;2023-12-20T14:07:35;8.90;;;1.67;;
48751;SDS011;34544;48.836;9.174;2023-12-20T14:10:01;4.97;;;1.20;;
48751;SDS011;34544;48.836;9.174;2023-12-20T14:12:26;5.25;;;1.20;;
48751;SDS011;34544;48.836;9.174;2023-12-20T14:14:52;6.65;;;1.83;;
48751;SDS011;34544;48.836;9.174;2023-12-20T14:17:21;6.75;;;1.15;;
48751;SDS011;34544;48.836;9.174;2023-12-20T14:19:47;7.47;;;2.55;;
48751;SDS011;34544;48.836;9.174;2023-12-20T14:22:13;6.82;;;1.38;;
48751;SDS011;34544;48.836;9.174;2023-12-20T14:24:42;6.05;;;1.48;;
48751;SDS011;34544;48.836;9.174;2023-12-20T14:27:07;4.97;;;1.02;;
48751;SDS011;34544;48.836;9.174;2023-12-20T14:29:34;4.95;;;2.00;;
48751;SDS011;34544;48.836;9.174;2023-12-20T14:32:00;4.35;;;1.30;;
48751;SDS011;34544;48.836;9.174;2023-12-20T14:34:28;10.82;;;1.67;;
48751;SDS011;34544;48.836;9.174;2023-12-20T14:36:54;3.85;;;1.20;;
48751;SDS011;34544;48.836;9.174;2023-12-20T14:39:20;5.15;;;0.90;;
48751;SDS011;34544;48.836;9.174;2023-12-20T14:41:46;5.85;;;1.55;;
48751;SDS011;34544;48.836;9.174;2023-12-20T14:44:12;7.13;;;1.67;;
48751;SDS011;34544;48.836;9.174;2023-12-20T14:46:37;5.65;;;2.17;;
48751;SDS011;34544;48.836;9.174;2023-12-20T14:49:07;6.95;;;1.60;;